• Join FlightAware (Why Join?)
  • Login
  • US Flag 
08:19AM EDT


 

Airport Tracker/Info


-or-


 

Live Flight TrackerFlight Track Log ✈ N137TK ✈ 30-Apr-2013 ✈ KAPF - N94

Flight Track Log - Related Links

Times and Time Zones

All times are in EDT time to prevent confusion due to time zone crossing. See the N137TK flight status page for this flight to view local times or setup timezone preferences in your user account.

Time Position Orientation Groundspeed Altitude Reporting Facility
EDT Latitude Longitude Course Direction KTS MPH feet Rate Location/Type
11:26AM 26.1372 -81.6608 354° North 169 194 4,900  Level Miami Center
11:27AM 26.1756 -81.6414 24° Northeast 150 173 6,900 1,800 Climbing Miami Center
11:28AM 26.2233 -81.6481 353° North 136 157 8,600 1,620 Climbing Miami Center
11:29AM 26.2756 -81.6478 360° North 161 185 10,200 1,680 Climbing Miami Center
11:30AM 26.5829 -81.8185 354° North  Level FlightAware Approximate
11:30AM 26.3297 -81.6522 356° North 182 209 12,000  Level Miami Center
11:31AM 26.6551 -81.8265 354° North  Level FlightAware Approximate
11:31AM 26.3814 -81.6636 349° North 192 221 13,500  Level Miami Center
11:32AM 26.4353 -81.6775 347° North 192 221 15,100 1,200 Climbing Miami Center
11:33AM 26.4953 -81.6961 344° North 198 228 16,000 1,020 Climbing Miami Center
11:34AM 26.5592 -81.7150 345° North 216 249 17,200 1,320 Climbing Miami Center
11:35AM 26.6131 -81.7289 347° North 216 249 18,700 1,380 Climbing Miami Center
11:36AM 26.6650 -81.7403 349° North 202 232 20,000 1,320 Climbing Miami Center
11:37AM 26.7125 -81.7539 346° North 190 219 21,400 1,080 Climbing Miami Center
11:38AM 26.7622 -81.7675 346° North 178 205 22,200 900 Climbing Miami Center
11:39AM 26.8119 -81.7789 348° North 178 205 23,200 900 Climbing Miami Center
11:40AM 26.8614 -81.7928 346° North 184 212 24,100 900 Climbing Miami Center
11:41AM 26.9158 -81.7881 North 184 212 25,000 900 Climbing Miami Center
11:42AM 26.9706 -81.7739 13° North 189 217 25,900 900 Climbing Miami Center
11:43AM 27.0256 -81.7578 15° North 194 223 26,800 540 Climbing Miami Center
11:44AM 27.0803 -81.7436 13° North 194 223 27,000 60 Climbing Miami Center
11:45AM 27.1392 -81.7275 14° North 216 249 27,000  Level Miami Center
11:46AM 27.2089 -81.7069 15° North 241 277 27,000  Level Miami Center
11:47AM 27.2889 -81.6869 13° North 255 293 27,000  Level Miami Center
11:48AM 27.3647 -81.6644 15° North 271 312 27,000  Level Miami Center
11:49AM 27.4403 -81.6467 12° North 276 318 27,000  Level Miami Center
11:50AM 27.5081 -81.6236 17° North 281 323 27,000  Level Miami Center
11:51AM 27.5942 -81.6017 13° North 281 323 27,000  Level Miami Center
11:52AM 27.6681 -81.5811 14° North 281 323 27,000  Level Miami Center
11:53AM 27.7458 -81.5608 13° North 281 323 27,000  Level Miami Center
11:54AM 27.8133 -81.5403 15° North 281 323 27,000  Level Miami Center
11:55AM 27.8953 -81.5178 14° North 281 323 27,000  Level Miami Center
11:56AM 27.9733 -81.4975 13° North 281 323 27,000  Level Miami Center
11:57AM 28.0492 -81.4747 15° North 281 323 27,000  Level Miami Center
11:58AM 28.1269 -81.4519 14° North 281 323 27,000  Level Miami Center
11:59AM 28.2050 -81.4292 14° North 281 323 27,000  Level Miami Center
12:00PM 28.2661 -81.4128 13° North 281 323 27,000  Level Miami Center
12:01PM 28.3789 -81.3850 12° North 300 345 27,000  Level Jacksonville Center
12:02PM 28.4581 -81.3625 14° North 294 338 27,000  Level Jacksonville Center
12:03PM 28.5350 -81.3425 13° North 289 333 27,000  Level Jacksonville Center
12:04PM 28.6017 -81.3414 North 282 325 27,000  Level Jacksonville Center
12:05PM 28.6769 -81.3497 354° North 268 308 27,000  Level Jacksonville Center
12:06PM 28.7500 -81.3558 356° North 268 308 27,000  Level Jacksonville Center
12:07PM 28.8275 -81.3639 355° North 268 308 27,000  Level Jacksonville Center
12:08PM 28.8986 -81.3725 354° North 268 308 27,000  Level Jacksonville Center
12:09PM 28.9736 -81.3783 356° North 268 308 27,000  Level Jacksonville Center
12:10PM 29.0489 -81.3867 354° North 268 308 27,000  Level Jacksonville Center
12:11PM 29.1242 -81.3928 356° North 273 314 27,000  Level Jacksonville Center
12:12PM 29.1994 -81.4011 354° North 273 314 27,000  Level Jacksonville Center
12:13PM 29.2747 -81.4094 354° North 273 314 27,000  Level Jacksonville Center
12:14PM 29.3497 -81.4156 356° North 273 314 27,000  Level Jacksonville Center
12:15PM 29.4314 -81.4261 354° North 273 314 27,000  Level Jacksonville Center
12:16PM 29.5086 -81.4322 356° North 273 314 27,000  Level Jacksonville Center
12:17PM 29.5839 -81.4383 356° North 273 314 27,000  Level Jacksonville Center
12:18PM 29.6592 -81.4467 355° North 273 314 27,000  Level Jacksonville Center
12:19PM 29.7344 -81.4528 356° North 273 314 27,000  Level Jacksonville Center
12:20PM 29.8097 -81.4589 356° North 273 314 27,000  Level Jacksonville Center
12:21PM 29.8847 -81.4672 354° North 273 314 27,000  Level Jacksonville Center
12:22PM 29.9622 -81.4756 355° North 273 314 27,000  Level Jacksonville Center
12:23PM 30.0375 -81.4817 356° North 273 314 27,000  Level Jacksonville Center
12:24PM 30.1125 -81.4878 356° North 273 314 27,000  Level Jacksonville Center
12:25PM 30.1858 -81.4964 354° North 273 314 27,000  Level Jacksonville Center
12:26PM 30.2611 -81.5050 354° North 273 314 27,000  Level Jacksonville Center
12:27PM 30.3364 -81.5086 358° North 273 314 27,000  Level Jacksonville Center
12:28PM 30.4072 -81.4981 North 273 314 27,000  Level Jacksonville Center
12:29PM 30.4842 -81.4872 North 273 314 27,000  Level Jacksonville Center
12:30PM 30.5614 -81.4742 North 273 314 27,000  Level Jacksonville Center
12:31PM 30.6383 -81.4608 North 273 314 27,000  Level Jacksonville Center
12:32PM 30.7156 -81.4475 North 273 314 27,000  Level Jacksonville Center
12:33PM 30.7906 -81.4344 North 273 314 27,000  Level Jacksonville Center
12:34PM 30.8678 -81.4211 North 273 314 27,000  Level Jacksonville Center
12:35PM 30.9447 -81.4103 North 273 314 27,000  Level Jacksonville Center
12:36PM 31.0239 -81.3944 10° North 273 314 27,000  Level Jacksonville Center
12:37PM 31.0989 -81.3836 North 273 314 27,000  Level Jacksonville Center
12:38PM 31.1761 -81.3700 North 273 314 27,000  Level Jacksonville Center
12:39PM 31.2553 -81.3542 10° North 273 314 27,000  Level Jacksonville Center
12:40PM 31.3322 -81.3408 North 273 314 27,000  Level Jacksonville Center
12:41PM 31.4178 -81.3272 North 273 314 27,000  Level Jacksonville Center
12:42PM 31.4886 -81.3139 North 273 314 27,000  Level Jacksonville Center
12:43PM 31.5761 -81.3003 North 278 320 27,000  Level Jacksonville Center
12:44PM 31.6450 -81.2892 North 278 320 27,000  Level Jacksonville Center
12:45PM 31.7303 -81.2731 North 278 320 27,000  Level Jacksonville Center
12:46PM 31.8072 -81.2594 North 278 320 27,000  Level Jacksonville Center
12:47PM 31.8739 -81.2486 North 272 313 27,000  Level Jacksonville Center
12:48PM 31.9617 -81.2347 North 278 320 27,000  Level Jacksonville Center
12:49PM 32.0364 -81.2211 North 273 314 27,000  Level Jacksonville Center
12:50PM 32.1136 -81.2075 North 278 320 27,000  Level Jacksonville Center
12:51PM 32.1906 -81.1839 15° North 273 314 27,000  Level Jacksonville Center
12:52PM 32.2631 -81.1506 21° North 278 320 27,000  Level Jacksonville Center
12:53PM 32.3358 -81.1222 18° North 283 326 27,000  Level Jacksonville Center
12:54PM 32.4083 -81.0939 18° North 283 326 27,000  Level Jacksonville Center
12:55PM 32.4833 -81.0653 18° North 277 319 27,000  Level Jacksonville Center
12:56PM 32.5558 -81.0317 21° North 277 319 27,000  Level Jacksonville Center
12:57PM 32.6283 -81.0031 18° North 277 319 27,000  Level Jacksonville Center
12:58PM 32.7011 -80.9744 18° North 271 312 27,000  Level Jacksonville Center
12:59PM 32.7717 -80.9433 20° North 266 306 27,000  Level Jacksonville Center
01:00PM 32.8419 -80.9144 19° North 266 306 27,000  Level Jacksonville Center
01:01PM 32.9147 -80.8833 20° North 266 306 27,000  Level Jacksonville Center
01:02PM 32.9853 -80.8544 19° North 266 306 27,000  Level Jacksonville Center
01:03PM 33.0578 -80.8256 18° North 266 306 27,000  Level Jacksonville Center
01:04PM 33.1283 -80.7967 19° North 266 306 27,000  Level Jacksonville Center
01:05PM 33.1967 -80.7678 19° North 266 306 27,000  Level Jacksonville Center
01:06PM 33.2692 -80.7386 19° North 266 306 27,000  Level Jacksonville Center
01:07PM 33.3397 -80.7072 20° North 266 306 27,000  Level Jacksonville Center
01:08PM 33.4081 -80.6781 20° North 266 306 27,000  Level Jacksonville Center
01:09PM 33.4783 -80.6464 21° North 266 306 27,000  Level Jacksonville Center
01:10PM 33.5467 -80.6197 18° North 266 306 27,000  Level Jacksonville Center
01:11PM 33.6172 -80.5906 19° North 266 306 27,000  Level Jacksonville Center
01:12PM 33.6856 -80.5614 20° North 266 306 27,000  Level Jacksonville Center
01:13PM 33.7539 -80.5294 21° North 266 306 27,000  Level Jacksonville Center
01:14PM 33.8222 -80.5028 18° North 266 306 27,000  Level Jacksonville Center
01:15PM 33.8883 -80.4733 20° North 266 306 27,000  Level Jacksonville Center
01:16PM 33.9567 -80.4439 20° North 266 306 27,000  Level Jacksonville Center
01:17PM 34.0250 -80.4144 20° North 266 306 27,000  Level Jacksonville Center
01:18PM 34.0953 -80.3875 18° North 266 306 27,000  Level Jacksonville Center
01:19PM 34.1614 -80.3578 20° North 261 300 27,000  Level Jacksonville Center
01:20PM 34.2297 -80.3258 21° North 261 300 27,000  Level Jacksonville Center
01:21PM 34.3000 -80.2986 18° North 261 300 27,000  Level Jacksonville Center
01:22PM 34.3661 -80.2664 22° Northeast 261 300 27,000  Level Jacksonville Center
01:23PM 34.4364 -80.2367 19° North 261 300 27,000  Level Jacksonville Center
01:25PM 34.5572 -80.1867 19° North 263 303 27,000  Level Washington Center
01:26PM 34.6336 -80.1506 21° North 258 297 27,000  Level Washington Center
01:27PM 34.7036 -80.1192 20° North 258 297 27,000  Level Washington Center
01:28PM 34.7717 -80.0900 19° North 258 297 27,000  Level Washington Center
01:29PM 34.8417 -80.0558 22° Northeast 258 297 27,000  Level Washington Center
01:30PM 34.8969 -80.0311 20° North 258 297 27,000  Level Washington Center
01:31PM 34.9836 -79.9953 19° North 265 305 27,000  Level Washington Center
01:32PM 35.0536 -79.9661 19° North 265 305 27,000  Level Washington Center
01:33PM 35.1217 -79.9317 22° Northeast 270 311 27,000  Level Washington Center
01:34PM 35.1939 -79.9000 20° North 270 311 27,000  Level Washington Center
01:35PM 35.2617 -79.8681 21° North 270 311 27,000  Level Washington Center
01:36PM 35.3339 -79.8361 20° North 270 311 27,000  Level Washington Center
01:37PM 35.4017 -79.8017 22° Northeast 270 311 27,000  Level Washington Center
01:38PM 35.4736 -79.7722 18° North 270 311 27,000  Level Washington Center
01:39PM 35.5458 -79.7403 20° North 270 311 27,000  Level Washington Center
01:40PM 35.6117 -79.7053 23° Northeast 277 319 27,000  Level Washington Center
01:41PM 35.6922 -79.6686 20° North 272 313 27,000  Level Washington Center
01:42PM 35.7536 -79.6411 20° North 272 313 27,000  Level Washington Center
01:43PM 35.8322 -79.6042 21° North 272 313 27,000  Level Washington Center
01:44PM 35.8956 -79.5767 19° North 272 313 27,000  Level Washington Center
01:45PM 35.9761 -79.5422 19° North 266 306 27,000  Level Washington Center
01:46PM 36.0375 -79.5144 20° North 266 306 27,000  Level Washington Center
01:47PM 36.1158 -79.4772 21° North 272 313 27,000  Level Washington Center
01:48PM 36.1794 -79.4494 19° North 272 313 27,000  Level Washington Center
01:49PM 36.2597 -79.4172 18° North 272 313 27,000  Level Washington Center
01:50PM 36.3319 -79.3822 21° North 272 313 27,000  Level Washington Center
01:51PM 36.3953 -79.3517 21° North 272 313 27,000  Level Washington Center
01:52PM 36.4675 -79.3189 20° North 272 313 27,000  Level Washington Center
01:53PM 36.5394 -79.2861 20° North 272 313 27,000  Level Washington Center
01:54PM 36.6197 -79.2486 21° North 272 313 27,000  Level Washington Center
01:55PM 36.6917 -79.2183 19° North 272 313 27,000  Level Washington Center
01:56PM 36.7636 -79.1828 22° Northeast 272 313 27,000  Level Washington Center
01:57PM 36.8333 -79.1550 18° North 272 313 27,000  Level Washington Center
01:58PM 36.9031 -79.1217 21° North 272 313 27,000  Level Washington Center
01:59PM 36.9772 -79.0886 20° North 272 313 27,000  Level Washington Center
02:00PM 37.0492 -79.0531 22° Northeast 272 313 27,000  Level Washington Center
02:01PM 37.1314 -79.0178 19° North 272 313 27,000  Level Washington Center
02:02PM 37.2014 -78.9842 21° North 272 313 27,000  Level Washington Center
02:03PM 37.2731 -78.9508 20° North 272 313 27,000  Level Washington Center
02:04PM 37.3386 -78.9197 21° North 272 313 27,000  Level Washington Center
02:05PM 37.4106 -78.8889 19° North 272 313 27,000  Level Washington Center
02:06PM 37.4822 -78.8553 20° North 272 313 27,000  Level Washington Center
02:07PM 37.5625 -78.8169 21° North 272 313 27,000 -60 Level Washington Center
02:08PM 37.6344 -78.7858 19° North 272 313 26,900 -360 Descending Washington Center
02:09PM 37.7083 -78.7522 20° North 272 313 26,400 -480 Descending Washington Center
02:10PM 37.7842 -78.7161 21° North 272 313 26,000 -480 Descending Washington Center
02:11PM 37.8539 -78.6847 20° North 277 319 25,500 -540 Descending Washington Center
02:12PM 37.9300 -78.6483 21° North 282 325 25,000 -300 Descending Washington Center
02:13PM 38.0058 -78.6144 19° North 287 330 25,000  Level Washington Center
02:14PM 38.0861 -78.5756 21° North 282 325 25,000  Level Washington Center
02:15PM 38.1578 -78.5442 19° North 276 318 25,000  Level Washington Center
02:16PM 38.2169 -78.5147 21° North 264 304 25,000  Level Washington Center
02:17PM 38.2867 -78.4803 21° North 264 304 25,000  Level Washington Center
02:18PM 38.3583 -78.4461 20° North 264 304 25,000  Level Washington Center
02:19PM 38.4278 -78.4142 20° North 264 304 25,000  Level Washington Center
02:20PM 38.4994 -78.3800 20° North 264 304 25,000  Level Washington Center
02:21PM 38.5653 -78.3292 31° Northeast 264 304 25,000  Level Washington Center
02:22PM 38.6292 -78.2783 32° Northeast 269 310 25,000  Level Washington Center
02:23PM 38.6950 -78.2222 34° Northeast 275 316 25,000 -300 Level Washington Center
02:24PM 38.7606 -78.1714 31° Northeast 280 322 24,500 -1,080 Descending Washington Center
02:25PM 38.8367 -78.1314 22° Northeast 280 322 22,900 -1,560 Descending Washington Center
02:26PM 38.9144 -78.0914 22° Northeast 291 335 21,400 -960 Descending Washington Center
02:27PM 38.9883 -78.0514 23° Northeast 291 335 21,000 -240 Descending Washington Center
02:28PM 39.0558 -78.0161 22° Northeast 276 318 21,000  Level Washington Center
02:29PM 39.1253 -77.9783 23° Northeast 271 312 21,000 -600 Level Washington Center
02:30PM 39.1969 -77.9403 22° Northeast 271 312 19,800 -1,380 Descending Washington Center
02:31PM 39.2728 -77.9000 22° Northeast 276 318 18,300 -1,380 Descending Washington Center
02:32PM 39.3569 -77.8544 23° Northeast 282 325 17,100 -1,380 Descending Washington Center
02:33PM 39.4328 -77.8111 24° Northeast 288 331 15,600 -1,500 Descending Washington Center
02:34PM 39.5086 -77.7731 21° North 293 337 14,100 -1,560 Descending Washington Center
02:35PM 39.5822 -77.7322 23° Northeast 293 337 12,600 -1,560 Descending Washington Center
02:36PM 39.6536 -77.6939 22° Northeast 287 330 11,100 -1,500 Descending Washington Center
02:37PM 39.7272 -77.6528 23° Northeast 287 330 9,600 -1,500 Descending Washington Center
02:39PM 39.8282 -77.5884 38° Northeast  Level FlightAware Approximate
02:46PM 40.1833 -77.1667 37° Northeast  Level FlightAware Approximate
02:47PM 40.1879 -77.1743 37° Northeast  Level Estimated
02:48PM 40.1879 -77.1743 37° Northeast  Level Estimated
02:49PM 40.1879 -77.1743 37° Northeast  Level Estimated
02:50PM 40.1879 -77.1743 37° Northeast  Level Estimated
02:51PM 40.1879 -77.1743 37° Northeast  Level Estimated
02:52PM 40.1879 -77.1743 37° Northeast  Level Estimated
02:53PM 40.1879 -77.1743 37° Northeast  Level Estimated